Latest Weather Observations for Darwin

IDD60801

Issued at 11:05 pm CST Friday 22 August 2014 (issued every 30 minutes, with the page automatically refreshed every 10 minutes)

About weather observations | Map of weather stations | Latest weather observations for NT | Other Formats
Station Details ID: 014015 Name: DARWIN AIRPORT Lat: -12.42 Lon: 130.89 Height: 30.4 m
Data from the previous 72 hours. | See also: Recent months at Darwin
Date/Time
CST
Temp
°C
App
Temp
°C
Dew
Point
Rel
Hum
%
Delta-T
°C
Wind Press
QNH
hPa
Press
MSL
hPa
Rain
since 9 am
mm
Dir
 
Spd
km/h
Gust
km/h
Spd
kts
Gust
kts
22/11:00pm 16.8 16.1 13.2 79 2.0 S 9 11 5 6 1015.0 - 0.0
22/10:30pm 17.4 16.9 12.5 73 2.7 SW 7 9 4 5 1015.0 - 0.0
22/10:00pm 18.0 17.8 13.0 72 2.8 SW 6 7 3 4 1014.8 - 0.0
22/09:30pm 18.3 18.6 13.4 73 2.8 S 4 7 2 4 1014.7 - 0.0
22/09:00pm 19.2 18.7 12.8 66 3.6 W 7 9 4 5 1014.5 1014.3 0.0
22/08:30pm 20.6 20.4 13.0 61 4.3 WNW 6 9 3 5 1014.3 - 0.0
22/08:00pm 22.3 22.1 13.7 58 5.0 WNW 7 9 4 5 1013.7 - 0.0
22/07:30pm 22.2 21.1 12.1 52 5.7 W 9 13 5 7 1013.3 - 0.0
22/07:00pm 23.4 22.3 12.1 49 6.4 NNE 9 11 5 6 1012.9 - 0.0
22/06:30pm 25.2 22.8 10.0 38 8.4 N 13 17 7 9 1012.5 - 0.0
22/06:00pm 26.2 23.0 8.5 32 9.6 N 15 20 8 11 1012.2 1012.0 0.0
22/05:30pm 27.1 23.2 7.2 28 10.6 N 17 22 9 12 1012.0 - 0.0
22/05:00pm 27.9 23.4 6.8 26 11.2 N 20 26 11 14 1011.9 - 0.0
22/04:30pm 27.7 23.8 8.7 30 10.4 N 19 24 10 13 1011.9 - 0.0
22/04:00pm 28.4 23.7 9.1 29 10.7 N 24 30 13 16 1011.7 - 0.0
22/03:30pm 29.8 23.1 -10.2 7 16.0 N 19 26 10 14 1011.9 - 0.0
22/03:00pm 30.1 23.5 -9.7 7 16.1 SSE 19 28 10 15 1012.1 1011.9 0.0
22/02:30pm 30.1 24.7 -8.9 7 16.0 S 13 22 7 12 1012.5 - 0.0
22/02:00pm 29.6 23.0 -7.4 8 15.5 SE 20 28 11 15 1013.1 - 0.0
22/01:30pm 29.3 22.8 -7.9 8 15.4 SE 19 26 10 14 1013.7 - 0.0
22/01:00pm 28.8 21.6 -9.2 8 15.3 ESE 22 28 12 15 1014.3 - 0.0
22/12:30pm 28.2 21.1 -8.0 9 14.8 E 22 30 12 16 1014.9 - 0.0
22/12:00pm 28.2 20.7 -4.3 11 14.2 E 26 39 14 21 1015.5 1015.3 0.0
22/11:30am 27.4 19.8 -5.1 11 13.9 ESE 26 35 14 19 1016.2 - 0.0
22/11:00am 26.6 19.1 -4.3 13 13.3 E 26 44 14 24 1016.6 - 0.0
22/10:30am 25.7 21.0 5.9 28 10.2 ESE 20 24 11 13 1017.0 - 0.0
22/10:00am 24.8 19.9 9.9 39 8.2 E 26 30 14 16 1017.2 - 0.0
22/09:30am 24.0 20.5 10.2 41 7.6 ESE 19 24 10 13 1017.2 - 0.0
22/09:00am 22.1 17.3 4.9 32 8.5 ESE 19 26 10 14 1017.2 1017.1 0.0
22/08:30am 20.2 14.3 1.6 29 8.5 ESE 22 30 12 16 1017.0 - 0.0
22/08:00am 19.2 14.2 1.2 30 8.1 ESE 17 20 9 11 1016.6 - 0.0
22/07:30am 19.3 13.1 -0.1 27 8.5 ESE 22 28 12 15 1016.3 - 0.0
22/07:00am 16.4 12.8 8.3 58 4.1 E 17 19 9 10 1016.2 - 0.0
22/06:30am 17.6 14.4 8.5 55 4.7 SE 15 19 8 10 1015.7 - 0.0
22/06:00am 17.5 16.3 14.0 80 2.0 SSE 13 15 7 8 1015.5 1015.3 0.0
22/05:30am 16.0 15.0 13.3 84 1.5 SSE 11 13 6 7 1014.9 - 0.0
22/05:00am 16.8 15.7 13.2 79 2.0 SSE 11 13 6 7 1014.7 - 0.0
22/04:30am 16.7 15.7 13.3 80 1.9 SSE 11 13 6 7 1014.7 - 0.0
22/04:00am 16.4 15.8 13.6 83 1.6 SE 9 11 5 6 1014.8 - 0.0
22/03:30am 16.3 16.2 14.0 86 1.3 SE 7 9 4 5 1015.0 - 0.0
22/03:00am 16.5 16.0 13.9 84 1.5 SE 9 11 5 6 1015.1 1014.9 0.0
22/02:30am 17.4 16.7 14.4 82 1.7 SSE 11 11 6 6 1015.2 - 0.0
22/02:00am 16.7 16.8 14.4 86 1.3 ESE 7 11 4 6 1015.3 - 0.0
22/01:30am 16.4 16.5 14.5 88 1.1 SE 7 19 4 10 1015.5 - 0.0
22/01:00am 17.2 17.5 15.0 87 1.3 ESE 7 9 4 5 1015.6 - 0.0
22/12:30am 17.5 18.3 14.7 83 1.6 SE 4 6 2 3 1015.4 - 0.0
22/12:00am 17.7 17.9 14.8 83 1.7 ESE 7 7 4 4 1015.5 1015.3 0.0
 
Date/Time
CST
Temp
°C
App
Temp
°C
Dew
Point
Rel
Hum
%
Delta-T
°C
Wind Press
QNH
hPa
Press
MSL
hPa
Rain
since 9 am
mm
Dir
 
Spd
km/h
Gust
km/h
Spd
kts
Gust
kts
21/11:30pm 18.1 18.3 14.8 81 1.9 SE 7 9 4 5 1015.4 - 0.0
21/11:00pm 18.6 18.1 13.9 74 2.7 SW 9 11 5 6 1015.5 - 0.0
21/10:30pm 19.5 19.1 14.1 71 3.1 SW 9 11 5 6 1015.5 - 0.0
21/10:00pm 20.2 19.8 14.0 67 3.6 SW 9 11 5 6 1015.4 - 0.0
21/09:30pm 20.7 20.4 13.4 63 4.2 S 7 9 4 5 1015.3 - 0.0
21/09:00pm 21.6 21.5 13.8 61 4.5 S 7 9 4 5 1015.0 1014.8 0.0
21/08:30pm 22.6 22.8 14.2 59 4.9 E 6 7 3 4 1014.5 - 0.0
21/08:00pm 22.3 22.0 14.5 61 4.6 NNE 9 13 5 7 1014.0 - 0.0
21/07:30pm 23.6 23.1 13.7 53 5.8 NNE 9 13 5 7 1013.6 - 0.0
21/07:00pm 24.4 23.2 13.9 52 6.2 N 13 17 7 9 1013.2 - 0.0
21/06:30pm 25.3 23.1 13.3 47 7.0 N 17 20 9 11 1012.7 - 0.0
21/06:00pm 26.2 23.2 12.4 42 8.0 NNE 20 26 11 14 1012.6 1012.4 0.0
21/05:30pm 27.1 24.2 12.3 39 8.6 N 19 24 10 13 1012.3 - 0.0
21/05:00pm 28.3 24.4 10.9 34 9.9 N 22 28 12 15 1011.9 - 0.0
21/04:30pm 28.4 24.0 10.4 32 10.2 N 24 28 13 15 1011.7 - 0.0
21/04:00pm 31.1 25.9 3.6 17 14.1 NNW 20 30 11 16 1011.8 - 0.0
21/03:30pm 31.3 26.5 -2.3 11 15.6 ESE 13 24 7 13 1011.9 - 0.0
21/03:00pm 31.2 24.9 -4.2 10 15.9 S 20 28 11 15 1012.2 1012.0 0.0
21/02:30pm 30.8 24.8 -3.3 11 15.5 E 19 30 10 16 1012.8 - 0.0
21/02:00pm 30.7 24.5 -3.1 11 15.4 E 20 30 11 16 1013.2 - 0.0
21/01:30pm 30.0 23.0 -3.7 11 15.1 SE 24 30 13 16 1013.7 - 0.0
21/01:00pm 29.5 21.8 -3.1 12 14.7 SE 28 35 15 19 1014.2 - 0.0
21/12:30pm 29.1 21.9 -2.2 13 14.3 ESE 26 33 14 18 1014.7 - 0.0
21/12:00pm 28.5 21.5 -0.6 15 13.6 E 26 50 14 27 1015.2 1015.0 0.0
21/11:51am 29.0 21.7 0.2 15 13.7 E 28 50 15 27 1015.3 - 0.0
21/11:30am 27.9 20.6 0.1 16 13.1 ESE 28 39 15 21 1015.4 - 0.0
21/11:00am 27.2 19.0 2.8 20 12.0 E 35 41 19 22 1015.8 - 0.0
21/10:30am 26.3 19.2 3.8 23 11.2 ESE 30 35 16 19 1016.0 - 0.0
21/10:00am 25.0 19.0 7.0 31 9.4 ESE 28 35 15 19 1015.9 - 0.0
21/09:30am 23.9 17.3 4.3 28 9.7 ESE 28 37 15 20 1016.0 - 0.0
21/09:00am 22.3 16.7 3.7 29 9.0 ESE 22 32 12 17 1015.9 1015.7 0.0
21/08:30am 21.1 15.4 4.8 34 8.0 ESE 24 30 13 16 1015.5 - 0.0
21/08:00am 19.6 15.5 8.7 49 5.7 ESE 20 28 11 15 1015.1 - 0.0
21/07:30am 19.0 14.9 10.0 56 4.8 SE 22 32 12 17 1014.6 - 0.0
21/07:00am 18.2 17.4 16.2 88 1.2 SE 15 19 8 10 1014.2 - 0.0
21/06:30am 18.4 17.9 16.9 91 0.9 SE 15 17 8 9 1013.7 - 0.0
21/06:00am 18.4 18.8 17.2 93 0.7 SSE 11 15 6 8 1013.3 1013.1 0.0
21/05:30am 18.6 19.1 17.5 93 0.7 SE 11 13 6 7 1013.3 - 0.0
21/05:00am 19.4 19.5 17.4 88 1.2 S 13 17 7 9 1013.3 - 0.0
21/04:30am 19.9 20.6 18.0 89 1.2 SSE 11 13 6 7 1013.1 - 0.0
21/04:00am 20.2 21.2 17.8 86 1.5 SSE 9 11 5 6 1013.1 - 0.0
21/03:30am 19.9 20.6 18.0 89 1.2 SSE 11 13 6 7 1013.2 - 0.0
21/03:00am 20.0 21.0 18.6 92 0.9 S 11 13 6 7 1013.5 1013.3 0.0
21/02:30am 20.2 20.8 18.6 90 1.0 S 13 15 7 8 1013.7 - 0.0
21/02:00am 20.7 21.7 18.6 88 1.3 S 11 13 6 7 1014.1 - 0.0
21/01:30am 21.0 21.9 18.3 84 1.7 SSE 11 13 6 7 1014.2 - 0.0
21/01:00am 21.2 21.6 18.1 82 1.9 S 13 15 7 8 1014.4 - 0.0
21/12:30am 21.5 22.4 18.5 83 1.9 S 11 11 6 6 1014.6 - 0.0
21/12:00am 20.1 21.0 16.6 80 2.1 S 7 9 4 5 1014.8 1014.6 0.0
 
Date/Time
CST
Temp
°C
App
Temp
°C
Dew
Point
Rel
Hum
%
Delta-T
°C
Wind Press
QNH
hPa
Press
MSL
hPa
Rain
since 9 am
mm
Dir
 
Spd
km/h
Gust
km/h
Spd
kts
Gust
kts
20/11:30pm 20.3 21.0 16.1 77 2.5 S 7 11 4 6 1015.1 - 0.0
20/11:00pm 22.0 22.6 16.9 73 3.1 S 9 11 5 6 1015.1 - 0.0
20/10:30pm 21.8 22.0 15.8 68 3.6 S 9 13 5 7 1015.0 - 0.0
20/10:00pm 22.1 22.8 16.0 68 3.7 S 7 9 4 5 1014.9 - 0.0
20/09:30pm 20.9 21.6 16.1 74 2.9 ENE 7 9 4 5 1014.8 - 0.0
20/09:00pm 21.4 21.7 15.9 71 3.3 NNE 9 11 5 6 1014.5 1014.3 0.0
20/08:30pm 22.4 22.7 15.9 66 3.9 NNE 9 13 5 7 1014.2 - 0.0
20/08:00pm 23.1 23.1 16.2 65 4.2 NE 11 17 6 9 1013.8 - 0.0
20/07:30pm 23.8 23.7 16.1 62 4.7 NNE 11 15 6 8 1013.5 - 0.0
20/07:00pm 24.3 24.1 16.7 62 4.7 NNE 13 20 7 11 1013.2 - 0.0
20/06:30pm 25.2 24.0 16.2 57 5.5 N 17 22 9 12 1012.9 - 0.0
20/06:00pm 26.0 24.0 15.5 52 6.4 N 20 26 11 14 1012.7 1012.5 0.0
20/05:30pm 26.8 24.1 14.7 47 7.3 NNE 22 28 12 15 1012.5 - 0.0
20/05:00pm 27.6 24.6 14.9 45 7.7 N 24 28 13 15 1012.5 - 0.0
20/04:30pm 27.5 24.8 14.6 45 7.8 N 22 30 12 16 1012.4 - 0.0
20/04:00pm 28.4 25.7 14.7 43 8.3 N 22 28 12 15 1012.5 - 0.0
20/03:30pm 28.2 25.8 15.3 45 7.9 N 22 28 12 15 1012.7 - 0.0
20/03:00pm 28.6 25.9 15.6 45 8.0 N 24 30 13 16 1012.8 1012.6 0.0
20/02:30pm 29.6 26.9 15.7 43 8.6 NNW 24 30 13 16 1013.0 - 0.0
20/02:00pm 29.9 25.9 11.9 33 10.5 N 24 33 13 18 1013.4 - 0.0
20/01:30pm 29.0 27.0 12.7 36 9.6 NNE 15 26 8 14 1013.9 - 0.0
20/01:00pm 29.6 26.2 11.2 32 10.6 NE 20 28 11 15 1014.5 - 0.0
20/12:30pm 29.3 26.9 12.6 35 9.8 NNE 17 24 9 13 1014.9 - 0.0
20/12:00pm 28.1 26.4 14.7 44 8.1 NE 17 26 9 14 1015.5 1015.3 0.0
20/11:30am 27.5 25.3 14.3 44 7.9 NE 19 24 10 13 1015.9 - 0.0
20/11:00am 26.1 23.6 14.2 48 7.1 NE 20 28 11 15 1016.3 - 0.0
20/10:30am 25.7 23.0 13.4 46 7.2 NE 20 30 11 16 1016.6 - 0.0
20/10:00am 24.4 21.4 10.5 41 7.7 ENE 17 24 9 13 1016.8 - 0.0
20/09:30am 22.7 18.3 7.5 37 7.9 E 20 28 11 15 1016.6 - 0.0
20/09:00am 21.8 16.2 5.3 34 8.2 E 24 30 13 16 1016.5 1016.3 0.0
20/08:30am 20.0 14.6 4.5 36 7.5 ESE 22 30 12 16 1016.3 - 0.0
20/08:00am 19.8 15.6 5.6 39 7.0 SE 17 24 9 13 1016.0 - 0.0
20/07:30am 18.9 16.6 10.3 57 4.6 SE 13 19 7 10 1015.8 - 0.0
20/07:00am 18.5 16.9 12.8 69 3.2 SSE 13 15 7 8 1015.5 - 0.0
20/06:30am 17.6 16.2 13.3 76 2.4 SSE 13 15 7 8 1015.2 - 0.0
20/06:00am 18.4 17.2 14.0 75 2.5 S 13 15 7 8 1014.8 1014.6 0.0
20/05:30am 16.2 15.6 14.6 90 0.9 S 11 13 6 7 1014.6 - 0.0
20/05:00am 18.4 19.0 16.7 90 1.0 SSW 9 11 5 6 1014.4 - 0.0
20/04:30am 16.6 16.5 14.9 90 1.0 SW 9 13 5 7 1014.3 - 0.0
20/04:00am 17.2 17.7 15.5 90 1.0 SSW 7 7 4 4 1014.3 - 0.0
20/03:30am 18.0 17.9 16.0 88 1.2 SSW 11 11 6 6 1014.4 - 0.0
20/03:00am 18.6 18.7 16.6 88 1.2 SW 11 13 6 7 1014.5 1014.3 0.0
20/02:30am 19.7 20.0 17.1 85 1.6 SW 11 11 6 6 1014.7 - 0.0
20/02:00am 19.8 19.9 17.5 86 1.4 SW 13 15 7 8 1014.9 - 0.0
20/01:30am 19.9 20.0 17.4 85 1.5 SW 13 15 7 8 1015.2 - 0.0
20/01:00am 19.8 19.4 16.3 80 2.1 SSW 13 15 7 8 1015.4 - 0.0
20/12:30am 19.7 19.9 15.8 78 2.3 SW 9 9 5 5 1015.3 - 0.0
20/12:00am 18.8 20.0 13.9 73 2.8 CALM 0 0 0 0 1015.5 1015.3 0.0
 
Date/Time
CST
Temp
°C
App
Temp
°C
Dew
Point
Rel
Hum
%
Delta-T
°C
Wind Press
QNH
hPa
Press
MSL
hPa
Rain
since 9 am
mm
Dir
 
Spd
km/h
Gust
km/h
Spd
kts
Gust
kts
19/11:30pm 18.4 18.2 13.7 74 2.7 SW 7 9 4 5 1015.4 - 0.0

Other Formats:

Comma delimited format used in spreadsheet applications
http://www.bom.gov.au/fwo/IDD60801/IDD60801.94120.axf

JavaScript Object Notation format (JSON) in row-major order
http://www.bom.gov.au/fwo/IDD60801/IDD60801.94120.json